Time;durP1;ratioP1;P1;durP2;ratioP2;P2;SDS_P1;SDS_P2;PMS_P1;PMS_P2;Temp;Humidity;BMP_temperature;BMP_pressure;BME280_temperature;BME280_humidity;BME280_pressure;Samples;Min_cycle;Max_cycle;Signal;HPM_P1;HPM_P2
2022/08/12 00:44:44;;;;;;;3.30;2.33;;;22.60;79.80;;;;;;6282035;27;88131;-64
2022/08/12 00:47:47;;;;;;;2.58;2.28;;;22.60;80.00;;;;;;6281310;27;89943;-64
2022/08/12 00:50:54;;;;;;;2.60;2.40;;;22.60;80.00;;;;;;6281167;27;88993;-64
2022/08/12 00:53:56;;;;;;;3.30;2.55;;;22.60;79.80;;;;;;6282122;27;89008;-64
2022/08/12 00:57:03;;;;;;;3.58;2.58;;;22.60;79.40;;;;;;6260888;27;89061;-64
2022/08/12 01:00:08;;;;;;;3.55;2.63;;;22.50;79.40;;;;;;6282808;27;89026;-64
2022/08/12 01:03:13;;;;;;;3.28;2.60;;;22.60;79.60;;;;;;6275848;27;89111;-63
2022/08/12 01:13:00;;;;;;;3.33;2.40;;;22.50;79.60;;;;;;6282531;27;89809;-64
2022/08/12 01:16:05;;;;;;;3.90;2.50;;;22.50;79.60;;;;;;6272407;27;89241;-64
2022/08/12 01:19:08;;;;;;;3.17;2.70;;;22.60;79.80;;;;;;6275697;27;90137;-64
2022/08/12 01:22:24;;;;;;;3.90;2.67;;;22.60;79.70;;;;;;6281665;27;88370;-64
2022/08/12 01:25:34;;;;;;;3.58;2.30;;;22.60;79.90;;;;;;6274869;27;89046;-64
2022/08/12 01:28:38;;;;;;;4.13;2.67;;;22.50;79.80;;;;;;6273287;27;88980;-64
2022/08/12 01:31:46;;;;;;;4.43;2.88;;;22.50;79.80;;;;;;6278302;27;89028;-64
2022/08/12 01:34:55;;;;;;;3.47;2.65;;;22.50;79.90;;;;;;6267766;27;89069;-64
2022/08/12 01:37:59;;;;;;;4.40;2.60;;;22.50;80.00;;;;;;6279903;27;89097;-64
2022/08/12 01:41:04;;;;;;;2.88;2.60;;;22.50;80.90;;;;;;6278186;27;88480;-64
2022/08/12 01:44:08;;;;;;;3.30;2.47;;;22.50;80.00;;;;;;6279485;27;89005;-64
2022/08/12 01:47:22;;;;;;;3.90;2.72;;;22.50;80.00;;;;;;6273131;27;89219;-64
2022/08/12 01:50:35;;;;;;;4.70;2.90;;;22.50;80.00;;;;;;6276418;27;90112;-64
2022/08/12 01:53:49;;;;;;;2.75;2.38;;;22.50;80.00;;;;;;6274201;27;90638;-64
2022/08/12 01:56:58;;;;;;;4.82;2.75;;;22.60;80.10;;;;;;6280264;27;89009;-64
2022/08/12 02:00:05;;;;;;;2.80;2.50;;;22.50;80.10;;;;;;6281591;27;88234;-64
2022/08/12 02:03:21;;;;;;;3.40;2.83;;;22.50;80.10;;;;;;6280650;27;89100;-64
2022/08/12 02:13:34;;;;;;;3.92;2.72;;;22.50;79.90;;;;;;6273568;27;86569;-64
2022/08/12 02:16:58;;;;;;;3.60;2.92;;;22.50;80.00;;;;;;6263815;27;89055;-64
2022/08/12 02:20:11;;;;;;;3.13;2.67;;;22.50;79.90;;;;;;6265243;27;89016;-64
2022/08/12 02:23:14;;;;;;;4.57;2.80;;;22.40;80.70;;;;;;6270160;27;89946;-64
2022/08/12 02:26:18;;;;;;;4.50;2.63;;;22.40;79.90;;;;;;6268144;27;89031;-64
2022/08/12 02:29:22;;;;;;;5.43;2.83;;;22.40;79.90;;;;;;6280505;27;88406;-64
2022/08/12 02:32:24;;;;;;;3.53;2.80;;;22.40;80.00;;;;;;6270060;27;88068;-64
2022/08/12 02:35:28;;;;;;;3.42;2.72;;;22.40;80.10;;;;;;6280202;27;90613;-64
2022/08/12 02:38:31;;;;;;;4.13;2.70;;;22.40;80.10;;;;;;6279072;27;89005;-64
2022/08/12 02:41:36;;;;;;;3.63;2.45;;;22.40;79.90;;;;;;6264556;27;89325;-64
2022/08/12 02:44:44;;;;;;;3.03;2.58;;;22.40;79.90;;;;;;6269132;27;88272;-64
2022/08/12 02:47:49;;;;;;;3.20;2.90;;;22.40;79.80;;;;;;6278437;27;89390;-64
2022/08/12 02:50:55;;;;;;;2.88;2.60;;;22.40;79.70;;;;;;6278964;27;89078;-64
2022/08/12 02:53:59;;;;;;;4.65;2.65;;;22.40;79.80;;;;;;6276597;27;90074;-64
2022/08/12 02:57:01;;;;;;;4.38;2.53;;;22.40;79.80;;;;;;6271058;27;88272;-64
2022/08/12 03:00:06;;;;;;;3.28;2.67;;;22.40;80.00;;;;;;6280619;27;89094;-64
2022/08/12 03:03:11;;;;;;;3.35;2.67;;;22.40;80.10;;;;;;6280214;27;91036;-64
2022/08/12 03:06:20;;;;;;;2.67;2.47;;;22.40;80.10;;;;;;6280234;27;89040;-64
2022/08/12 03:09:23;;;;;;;2.70;2.50;;;22.30;80.30;;;;;;6270625;27;89042;-64
2022/08/12 03:12:26;;;;;;;3.90;2.78;;;22.40;80.60;;;;;;6278282;27;89977;-64
2022/08/12 03:15:30;;;;;;;3.40;2.80;;;22.30;80.30;;;;;;6279473;27;88462;-64
2022/08/12 03:18:33;;;;;;;3.75;2.90;;;22.40;80.40;;;;;;6277540;27;90330;-64
2022/08/12 03:21:37;;;;;;;3.10;2.80;;;22.30;80.60;;;;;;6279947;27;88907;-63
2022/08/12 03:24:42;;;;;;;7.30;2.90;;;22.30;80.60;;;;;;6278632;27;89936;-64
2022/08/12 03:27:50;;;;;;;3.42;2.40;;;22.30;80.40;;;;;;6279475;27;89077;-64
2022/08/12 03:30:54;;;;;;;2.90;2.63;;;22.30;80.50;;;;;;6269553;27;89136;-64
2022/08/12 03:34:00;;;;;;;3.40;2.92;;;22.30;80.50;;;;;;6279876;27;88046;-64
2022/08/12 03:37:05;;;;;;;3.80;2.60;;;22.30;80.60;;;;;;6278511;27;89370;-63
2022/08/12 03:41:31;;;;;;;2.85;2.65;;;22.30;80.60;;;;;;6275763;27;88010;-64
2022/08/12 04:00:27;;;;;;;3.85;2.70;;;22.30;80.30;;;;;;6279844;27;90364;-64
2022/08/12 04:06:51;;;;;;;3.58;2.70;;;22.30;80.50;;;;;;6269614;27;89310;-64
2022/08/12 04:09:54;;;;;;;3.47;2.78;;;22.20;80.60;;;;;;6276596;27;89128;-64
2022/08/12 04:13:18;;;;;;;4.05;2.72;;;22.30;80.80;;;;;;6263501;27;88986;-64
2022/08/12 04:16:20;;;;;;;3.15;2.65;;;22.30;80.80;;;;;;6276196;27;89635;-63
2022/08/12 04:19:25;;;;;;;3.88;2.85;;;22.20;80.50;;;;;;6283938;27;88638;-64
2022/08/12 04:22:29;;;;;;;2.92;2.63;;;22.20;80.50;;;;;;6283492;27;89023;-64
2022/08/12 04:25:32;;;;;;;3.13;2.47;;;22.20;80.60;;;;;;6283652;27;89046;-64
2022/08/12 04:28:34;;;;;;;3.35;2.65;;;22.20;80.50;;;;;;6281896;27;90104;-63
2022/08/12 04:31:38;;;;;;;2.90;2.60;;;22.20;80.50;;;;;;6282408;27;89031;-63
2022/08/12 04:34:43;;;;;;;3.15;2.60;;;22.20;80.50;;;;;;6273747;27;89033;-64
2022/08/12 04:37:46;;;;;;;3.33;2.63;;;22.30;80.60;;;;;;6272818;27;89478;-63
2022/08/12 04:40:48;;;;;;;5.57;2.92;;;22.30;80.60;;;;;;6274814;27;89024;-64
2022/08/12 04:43:51;;;;;;;3.25;2.88;;;22.20;80.60;;;;;;6273683;27;89133;-63
2022/08/12 04:46:54;;;;;;;3.10;2.53;;;22.20;80.60;;;;;;6283039;27;89196;-63
2022/08/12 04:49:58;;;;;;;3.72;2.80;;;22.20;80.60;;;;;;6283570;27;88340;-64
2022/08/12 04:53:01;;;;;;;6.47;3.20;;;22.20;80.50;;;;;;6282294;27;89086;-63
2022/08/12 04:56:03;;;;;;;3.30;2.67;;;22.20;80.40;;;;;;6281942;27;88957;-64
2022/08/12 04:59:06;;;;;;;4.15;3.05;;;22.10;80.30;;;;;;6265759;27;90012;-63
2022/08/12 05:02:08;;;;;;;5.18;2.92;;;22.20;80.50;;;;;;6278338;27;89024;-63
2022/08/12 05:05:19;;;;;;;6.25;2.45;;;22.10;80.40;;;;;;6281868;27;89159;-63
2022/08/12 05:08:21;;;;;;;6.00;3.08;;;22.10;80.90;;;;;;6280519;27;89045;-64
2022/08/12 05:11:24;;;;;;;3.33;2.63;;;22.10;81.20;;;;;;6282507;27;89644;-64
2022/08/12 05:14:26;;;;;;;3.67;2.42;;;22.10;81.30;;;;;;6281844;27;89330;-64
2022/08/12 05:17:28;;;;;;;3.08;2.58;;;22.10;81.50;;;;;;6280887;27;89213;-63
2022/08/12 05:20:33;;;;;;;4.00;2.60;;;22.10;81.60;;;;;;6280428;27;88361;-64
2022/08/12 05:23:37;;;;;;;4.15;2.63;;;22.10;81.60;;;;;;6281308;27;87920;-64
2022/08/12 05:26:40;;;;;;;4.13;2.55;;;22.10;81.60;;;;;;6280554;27;89077;-64
2022/08/12 05:29:48;;;;;;;4.63;2.50;;;22.10;81.90;;;;;;6280632;27;90119;-63
2022/08/12 05:32:50;;;;;;;2.80;2.55;;;22.20;82.10;;;;;;6280929;27;89080;-64
2022/08/12 05:35:53;;;;;;;2.38;2.10;;;22.10;82.00;;;;;;6280583;27;89225;-63
2022/08/12 05:38:59;;;;;;;2.63;2.40;;;22.10;81.80;;;;;;6277925;27;89020;-63
2022/08/12 05:42:01;;;;;;;3.22;2.30;;;22.10;81.60;;;;;;6277182;27;89139;-64
2022/08/12 05:45:03;;;;;;;2.88;2.38;;;22.20;81.60;;;;;;6277666;27;89117;-63
2022/08/12 05:48:06;;;;;;;3.58;2.00;;;22.10;81.50;;;;;;6270659;27;89447;-63
2022/08/12 05:51:11;;;;;;;4.25;2.60;;;22.20;81.50;;;;;;6259204;27;88578;-64
2022/08/12 05:54:14;;;;;;;4.63;2.30;;;22.10;81.50;;;;;;6268289;27;89043;-63
2022/08/12 05:57:16;;;;;;;2.60;2.40;;;22.10;81.50;;;;;;6282081;27;87831;-63
2022/08/12 06:00:20;;;;;;;2.50;2.30;;;22.10;81.50;;;;;;6280114;27;91858;-64
2022/08/12 06:03:24;;;;;;;2.38;2.10;;;22.10;81.60;;;;;;6281253;27;89448;-63
2022/08/12 06:06:27;;;;;;;3.35;2.35;;;22.10;81.60;;;;;;6280865;27;89427;-64
2022/08/12 06:09:30;;;;;;;2.60;2.20;;;22.10;81.60;;;;;;6281544;27;89086;-63
2022/08/12 06:12:32;;;;;;;2.85;2.17;;;22.20;81.80;;;;;;6282385;27;89129;-64
2022/08/12 06:15:36;;;;;;;3.25;2.00;;;22.20;81.80;;;;;;6279982;27;89028;-63
2022/08/12 06:18:39;;;;;;;2.47;2.10;;;22.20;81.80;;;;;;6281436;27;88817;-63
2022/08/12 06:21:47;;;;;;;2.80;1.92;;;22.20;81.80;;;;;;6280686;27;87107;-63
2022/08/12 06:24:51;;;;;;;3.65;2.33;;;22.20;81.80;;;;;;6277628;27;89002;-63
2022/08/12 06:27:53;;;;;;;3.08;2.20;;;22.20;82.00;;;;;;6269135;27;89192;-63
2022/08/12 06:30:56;;;;;;;2.10;1.90;;;22.20;82.00;;;;;;6278581;27;89897;-63
2022/08/12 06:33:58;;;;;;;3.45;2.20;;;22.20;82.00;;;;;;6278259;27;89186;-63
2022/08/12 06:37:03;;;;;;;5.05;2.40;;;22.20;82.00;;;;;;6269437;27;88993;-63
2022/08/12 06:40:07;;;;;;;3.75;2.28;;;22.20;82.10;;;;;;6272243;27;88944;-64
2022/08/12 06:43:08;;;;;;;2.97;2.08;;;22.20;82.20;;;;;;6296669;27;89367;-64
2022/08/12 06:46:12;;;;;;;3.95;2.10;;;22.30;82.30;;;;;;6272624;27;89084;-64
2022/08/12 06:49:14;;;;;;;4.35;2.30;;;22.20;82.30;;;;;;6264148;27;88897;-64
2022/08/12 06:52:21;;;;;;;2.38;1.90;;;22.20;82.30;;;;;;6272656;27;88183;-64
2022/08/12 06:55:24;;;;;;;3.55;1.88;;;22.20;82.30;;;;;;6280847;27;87994;-64
2022/08/12 06:58:27;;;;;;;2.20;1.90;;;22.20;82.30;;;;;;6274076;27;88956;-64
2022/08/12 07:01:30;;;;;;;2.45;2.10;;;22.20;82.30;;;;;;6272069;27;90016;-64
2022/08/12 07:04:34;;;;;;;3.28;2.10;;;22.20;82.30;;;;;;6280616;27;89235;-63
2022/08/12 07:07:38;;;;;;;2.25;1.73;;;22.20;82.30;;;;;;6274391;27;89423;-64
2022/08/12 07:10:42;;;;;;;1.98;1.80;;;22.20;82.10;;;;;;6272962;27;89139;-64
2022/08/12 07:13:49;;;;;;;2.13;1.75;;;22.20;82.00;;;;;;6279732;27;89017;-63
2022/08/12 07:16:55;;;;;;;2.17;1.80;;;22.20;82.00;;;;;;6279887;27;89282;-63
2022/08/12 07:19:57;;;;;;;3.22;2.00;;;22.20;82.10;;;;;;6278891;27;89474;-64
2022/08/12 07:23:02;;;;;;;2.40;1.88;;;22.20;82.00;;;;;;6281034;27;88335;-64
2022/08/12 07:26:06;;;;;;;3.92;2.03;;;22.20;82.00;;;;;;6268716;27;89028;-64
2022/08/12 07:29:09;;;;;;;2.53;2.00;;;22.20;81.60;;;;;;6277625;27;89061;-63
2022/08/12 07:32:11;;;;;;;2.90;1.80;;;22.20;81.60;;;;;;6277312;27;89922;-63
2022/08/12 07:35:13;;;;;;;2.10;1.90;;;22.20;81.70;;;;;;6278636;27;89072;-64
2022/08/12 07:38:24;;;;;;;2.05;1.83;;;22.20;81.70;;;;;;6279560;27;89005;-64
2022/08/12 07:41:30;;;;;;;2.72;2.10;;;22.20;81.70;;;;;;6272691;27;88995;-63
2022/08/12 07:44:33;;;;;;;3.13;2.20;;;22.10;81.70;;;;;;6271936;27;89244;-63
2022/08/12 07:47:35;;;;;;;2.63;2.00;;;22.10;81.80;;;;;;6270943;27;89018;-63
2022/08/12 07:50:37;;;;;;;3.78;1.83;;;22.20;81.80;;;;;;6280392;27;88919;-63
2022/08/12 07:53:41;;;;;;;1.90;1.70;;;22.20;81.90;;;;;;6277342;27;88575;-64
2022/08/12 07:56:43;;;;;;;1.77;1.65;;;22.20;81.90;;;;;;6280963;27;89482;-64
2022/08/12 07:59:45;;;;;;;2.78;1.90;;;22.20;81.80;;;;;;6278818;27;89117;-64
2022/08/12 08:02:53;;;;;;;3.13;1.60;;;22.20;81.90;;;;;;6277195;27;90027;-64
2022/08/12 08:05:55;;;;;;;2.25;1.67;;;22.20;81.80;;;;;;6282129;27;89356;-64
2022/08/12 08:08:59;;;;;;;1.70;1.60;;;22.20;81.80;;;;;;6282179;27;89089;-64
2022/08/12 08:15:21;;;;;;;2.78;1.60;;;22.20;81.80;;;;;;6275594;27;87983;-64
2022/08/12 08:18:24;;;;;;;3.08;1.75;;;22.20;81.90;;;;;;6272735;27;89142;-63
2022/08/12 08:21:28;;;;;;;2.33;1.77;;;22.20;81.80;;;;;;6283895;27;89025;-64
2022/08/12 08:24:32;;;;;;;1.77;1.48;;;22.30;82.00;;;;;;6270342;27;88414;-64
2022/08/12 08:27:45;;;;;;;1.90;1.60;;;22.30;82.00;;;;;;6274722;27;89027;-64
2022/08/12 08:30:48;;;;;;;2.38;1.60;;;22.20;81.90;;;;;;6269768;27;89069;-64
2022/08/12 08:33:50;;;;;;;3.05;1.73;;;22.20;81.90;;;;;;6276604;27;89958;-64
2022/08/12 08:36:52;;;;;;;2.00;1.65;;;22.20;81.80;;;;;;6282210;27;89081;-64
2022/08/12 08:42:35;;;;;;;2.38;1.55;;;22.20;81.80;;;;;;6282417;27;89038;-63
2022/08/12 08:43:16;;;;;;;1.70;1.60;;;22.20;81.90;;;;;;6272731;27;88647;-64
2022/08/12 08:46:19;;;;;;;2.00;1.60;;;22.20;82.00;;;;;;6277978;27;88988;-64
2022/08/12 08:49:21;;;;;;;2.13;1.85;;;22.20;82.20;;;;;;6274517;27;89103;-64
2022/08/12 08:52:24;;;;;;;2.70;2.03;;;22.20;82.30;;;;;;6280762;27;87732;-63
2022/08/12 08:55:27;;;;;;;2.13;1.70;;;22.20;82.40;;;;;;6282873;27;88436;-64
2022/08/12 08:58:29;;;;;;;2.40;1.58;;;22.20;82.70;;;;;;6283157;27;88171;-64
2022/08/12 09:01:31;;;;;;;3.15;1.65;;;22.20;82.60;;;;;;6281418;27;89082;-64
2022/08/12 09:04:33;;;;;;;2.53;1.80;;;22.20;82.40;;;;;;6277023;27;90013;-63
2022/08/12 09:07:43;;;;;;;2.08;1.73;;;22.30;82.50;;;;;;6281887;27;89091;-64
2022/08/12 09:10:47;;;;;;;1.77;1.67;;;22.20;82.60;;;;;;6277641;27;89062;-64
2022/08/12 09:13:48;;;;;;;2.38;1.75;;;22.30;82.70;;;;;;6282662;27;89110;-63
2022/08/12 09:16:50;;;;;;;3.08;1.80;;;22.30;82.50;;;;;;6263959;27;87968;-63
2022/08/12 09:19:52;;;;;;;1.73;1.40;;;22.30;82.60;;;;;;6272052;27;89051;-64
2022/08/12 09:22:55;;;;;;;2.58;1.80;;;22.30;82.60;;;;;;6282956;27;87998;-63
2022/08/12 09:26:01;;;;;;;1.67;1.58;;;22.30;82.40;;;;;;6282467;27;87150;-64
2022/08/12 09:29:03;;;;;;;2.28;1.67;;;22.30;83.00;;;;;;6278785;27;89126;-63
2022/08/12 09:32:06;;;;;;;2.78;1.85;;;22.30;83.00;;;;;;6280234;27;89166;-64
2022/08/12 09:35:08;;;;;;;1.70;1.60;;;22.20;83.00;;;;;;6269869;27;90052;-64
2022/08/12 09:38:16;;;;;;;1.88;1.63;;;22.30;83.00;;;;;;6282008;27;89047;-64
2022/08/12 09:41:19;;;;;;;1.80;1.70;;;22.30;82.90;;;;;;6279500;27;89137;-64
2022/08/12 09:47:42;;;;;;;2.03;1.73;;;22.30;83.10;;;;;;6271631;27;87096;-64
2022/08/12 09:50:46;;;;;;;2.67;2.05;;;22.30;83.00;;;;;;6269481;27;89046;-64
2022/08/12 09:53:48;;;;;;;4.68;1.73;;;22.30;83.50;;;;;;6278820;27;88182;-63
2022/08/12 09:56:53;;;;;;;1.65;1.55;;;22.30;83.80;;;;;;6289486;27;88417;-64
2022/08/12 09:59:56;;;;;;;1.90;1.50;;;22.30;83.50;;;;;;6278595;27;88021;-63
2022/08/12 10:03:03;;;;;;;1.83;1.60;;;22.30;83.20;;;;;;6281554;27;89107;-64
2022/08/12 10:06:06;;;;;;;1.90;1.70;;;22.30;83.20;;;;;;6277955;27;89449;-64
2022/08/12 10:09:09;;;;;;;1.63;1.52;;;22.30;83.70;;;;;;6279328;27;89064;-63
2022/08/12 10:15:32;;;;;;;1.80;1.70;;;22.30;84.00;;;;;;6280262;27;87338;-64
2022/08/12 10:18:36;;;;;;;2.03;1.63;;;22.30;83.80;;;;;;6279880;27;89210;-64
2022/08/12 10:21:40;;;;;;;1.70;1.60;;;22.30;83.20;;;;;;6279080;27;89160;-64
2022/08/12 10:24:44;;;;;;;3.10;1.77;;;22.40;82.30;;;;;;6278949;27;87851;-64
2022/08/12 10:31:07;;;;;;;1.80;1.60;;;22.40;83.30;;;;;;6279340;27;87266;-64
2022/08/12 10:34:10;;;;;;;1.70;1.60;;;22.40;82.90;;;;;;6276268;27;88242;-64
2022/08/12 10:37:12;;;;;;;2.35;1.65;;;22.40;82.80;;;;;;6276529;27;91139;-64
2022/08/12 10:40:14;;;;;;;1.67;1.58;;;22.40;82.60;;;;;;6277287;27;90221;-63
2022/08/12 10:46:38;;;;;;;2.28;1.67;;;22.40;82.10;;;;;;6281544;27;89303;-64
2022/08/12 10:49:40;;;;;;;2.33;1.60;;;22.40;82.60;;;;;;6268140;27;88609;-64
2022/08/12 10:52:47;;;;;;;1.65;1.48;;;22.40;82.80;;;;;;6279060;27;87983;-64
2022/08/12 10:55:50;;;;;;;3.13;1.80;;;22.40;83.20;;;;;;6271506;27;89032;-63
2022/08/12 10:58:54;;;;;;;3.17;1.63;;;22.40;83.10;;;;;;6268220;27;88271;-64
2022/08/12 11:01:57;;;;;;;2.17;1.80;;;22.40;83.00;;;;;;6280018;27;89163;-63
2022/08/12 11:04:59;;;;;;;2.50;1.90;;;22.40;83.40;;;;;;6279109;27;89039;-64
2022/08/12 11:08:01;;;;;;;2.78;1.70;;;22.40;83.70;;;;;;6267778;27;90058;-64
2022/08/12 11:11:04;;;;;;;2.70;1.83;;;22.40;84.00;;;;;;6278919;27;89027;-64
2022/08/12 11:14:07;;;;;;;2.45;1.90;;;22.40;84.20;;;;;;6283350;27;88985;-65
2022/08/12 11:17:11;;;;;;;1.73;1.48;;;22.30;84.20;;;;;;6279582;27;89054;-64
2022/08/12 11:20:13;;;;;;;1.80;1.60;;;22.30;84.20;;;;;;6278579;27;88947;-65
2022/08/12 11:23:16;;;;;;;2.72;1.70;;;22.40;84.40;;;;;;6280064;27;89128;-65
2022/08/12 11:26:18;;;;;;;1.85;1.60;;;22.30;84.40;;;;;;6277260;27;89099;-64
2022/08/12 11:29:23;;;;;;;2.42;1.88;;;22.40;84.60;;;;;;6283555;27;88693;-64
2022/08/12 11:32:25;;;;;;;2.50;1.80;;;22.40;84.60;;;;;;6278991;27;89058;-64
2022/08/12 11:35:27;;;;;;;2.25;1.70;;;22.40;84.80;;;;;;6284663;27;89173;-64
2022/08/12 11:38:29;;;;;;;2.70;1.77;;;22.40;84.70;;;;;;6282263;27;90011;-64
2022/08/12 11:41:32;;;;;;;1.88;1.63;;;22.50;85.80;;;;;;6273224;27;89128;-64
2022/08/12 11:44:35;;;;;;;2.08;1.63;;;22.40;84.90;;;;;;6273347;27;90127;-64
2022/08/12 11:47:37;;;;;;;2.58;1.73;;;22.40;84.90;;;;;;6282691;27;89156;-64
2022/08/12 11:50:39;;;;;;;1.95;1.70;;;22.40;85.10;;;;;;6282757;27;89001;-64
2022/08/12 11:53:41;;;;;;;2.05;1.80;;;22.40;85.20;;;;;;6271025;27;87976;-65
2022/08/12 11:56:43;;;;;;;2.13;1.80;;;22.40;85.20;;;;;;6281676;27;89093;-64
2022/08/12 11:59:47;;;;;;;2.30;1.80;;;22.50;85.30;;;;;;6271935;27;88299;-64
2022/08/12 12:02:49;;;;;;;1.75;1.65;;;22.40;85.10;;;;;;6284643;27;89185;-64
2022/08/12 12:05:51;;;;;;;2.13;1.85;;;22.40;85.10;;;;;;6283136;27;89053;-64
2022/08/12 12:08:53;;;;;;;1.85;1.60;;;22.40;85.10;;;;;;6278346;27;90095;-64
2022/08/12 12:11:55;;;;;;;2.70;1.80;;;22.40;85.20;;;;;;6273848;27;89085;-64
2022/08/12 12:14:59;;;;;;;2.00;1.80;;;22.40;85.20;;;;;;6279327;27;89574;-64
2022/08/12 12:18:01;;;;;;;2.13;1.85;;;22.40;85.20;;;;;;6282834;27;89131;-64
2022/08/12 12:21:05;;;;;;;2.60;2.15;;;22.40;85.20;;;;;;6284489;27;89086;-64
2022/08/12 12:24:07;;;;;;;1.88;1.67;;;22.40;85.20;;;;;;6275399;27;89079;-64
2022/08/12 12:27:09;;;;;;;2.05;1.70;;;22.50;85.20;;;;;;6282967;27;89123;-64
2022/08/12 12:30:13;;;;;;;2.25;1.95;;;22.50;85.20;;;;;;6282048;27;88408;-64
2022/08/12 12:33:15;;;;;;;1.60;1.50;;;22.40;85.00;;;;;;6276275;27;89109;-65
2022/08/12 12:36:17;;;;;;;1.92;1.70;;;22.50;85.10;;;;;;6275854;27;89124;-64
2022/08/12 12:39:19;;;;;;;3.15;1.80;;;22.50;85.30;;;;;;6278065;27;89164;-64
2022/08/12 12:42:21;;;;;;;3.50;2.20;;;22.50;85.50;;;;;;6274747;27;89448;-64
2022/08/12 12:45:25;;;;;;;2.67;1.88;;;22.50;86.00;;;;;;6283561;27;89095;-64
2022/08/12 12:48:27;;;;;;;2.05;1.85;;;22.50;85.90;;;;;;6275831;27;89230;-64
2022/08/12 12:51:29;;;;;;;2.30;1.80;;;22.50;85.80;;;;;;6274504;27;89090;-64
2022/08/12 12:54:31;;;;;;;2.55;1.85;;;22.50;85.90;;;;;;6281838;27;88249;-65
2022/08/12 12:57:39;;;;;;;1.70;1.60;;;22.50;85.80;;;;;;6282021;27;89092;-64
2022/08/12 13:00:44;;;;;;;2.17;1.70;;;22.50;85.80;;;;;;6275537;27;88402;-65
2022/08/12 13:03:47;;;;;;;1.65;1.55;;;22.50;85.80;;;;;;6283162;27;89006;-64
2022/08/12 13:06:51;;;;;;;3.08;2.00;;;22.50;85.80;;;;;;6281844;27;89420;-64
2022/08/12 13:09:53;;;;;;;2.13;1.67;;;22.50;85.80;;;;;;6280990;27;90024;-65
2022/08/12 13:12:55;;;;;;;2.25;1.58;;;22.50;85.90;;;;;;6275853;27;89020;-64
2022/08/12 13:16:00;;;;;;;2.95;1.90;;;22.50;85.90;;;;;;6275113;27;88964;-64
2022/08/12 13:19:02;;;;;;;2.88;2.08;;;22.50;85.90;;;;;;6274682;27;87847;-65
2022/08/12 13:22:17;;;;;;;2.15;1.70;;;22.50;85.90;;;;;;6276070;27;89061;-65
2022/08/12 13:25:20;;;;;;;2.45;1.77;;;22.50;85.90;;;;;;6270726;27;89044;-65
2022/08/12 13:28:23;;;;;;;2.03;1.50;;;22.50;85.90;;;;;;6270152;27;89096;-63
2022/08/12 13:31:26;;;;;;;2.45;1.73;;;22.50;85.90;;;;;;6280912;27;88367;-64
2022/08/12 13:34:28;;;;;;;2.60;1.58;;;22.50;86.20;;;;;;6281615;27;88032;-63
2022/08/12 13:37:30;;;;;;;1.80;1.70;;;22.50;86.40;;;;;;6282222;27;89255;-64
2022/08/12 13:40:33;;;;;;;1.90;1.75;;;22.50;86.30;;;;;;6269077;27;89880;-63
2022/08/12 13:43:35;;;;;;;2.67;1.80;;;22.50;86.20;;;;;;6280784;27;89239;-64
2022/08/12 13:46:40;;;;;;;3.13;2.03;;;22.50;86.20;;;;;;6280500;27;89142;-64
2022/08/12 13:49:44;;;;;;;3.00;1.80;;;22.50;86.20;;;;;;6280422;27;89010;-64
2022/08/12 13:52:46;;;;;;;1.70;1.60;;;22.60;86.20;;;;;;6270461;27;89084;-64
2022/08/12 13:55:50;;;;;;;2.88;1.70;;;22.50;86.20;;;;;;6280002;27;89592;-64
2022/08/12 13:58:52;;;;;;;2.50;1.60;;;22.50;86.20;;;;;;6279917;27;89658;-64
2022/08/12 14:01:56;;;;;;;1.63;1.52;;;22.50;86.40;;;;;;6280405;27;88513;-63
2022/08/12 14:04:58;;;;;;;2.00;1.60;;;22.50;86.40;;;;;;6279660;27;89261;-64
2022/08/12 14:08:01;;;;;;;2.53;1.80;;;22.60;86.40;;;;;;6281012;27;89351;-64
2022/08/12 14:11:03;;;;;;;1.80;1.40;;;22.60;86.40;;;;;;6281076;27;90313;-64
2022/08/12 14:14:05;;;;;;;2.17;1.90;;;22.60;86.40;;;;;;6280622;27;89019;-64
2022/08/12 14:17:08;;;;;;;1.90;1.70;;;22.60;86.40;;;;;;6271218;27;89122;-64
2022/08/12 14:20:13;;;;;;;1.75;1.65;;;22.60;86.50;;;;;;6274648;27;89065;-64
2022/08/12 14:23:16;;;;;;;2.00;1.80;;;22.60;86.50;;;;;;6280692;27;87996;-64
2022/08/12 14:26:23;;;;;;;3.95;1.83;;;22.60;86.40;;;;;;6280598;27;88031;-64
2022/08/12 14:29:25;;;;;;;1.80;1.60;;;22.60;86.40;;;;;;6266884;27;89209;-63
2022/08/12 14:32:33;;;;;;;1.67;1.55;;;22.60;86.40;;;;;;6278644;27;88210;-64
2022/08/12 14:35:35;;;;;;;3.05;1.65;;;22.60;86.40;;;;;;6279841;27;87965;-64
2022/08/12 14:38:39;;;;;;;2.15;1.70;;;22.60;86.40;;;;;;6280208;27;89120;-64
2022/08/12 14:41:41;;;;;;;3.38;1.90;;;22.60;86.40;;;;;;6278490;27;90189;-64
2022/08/12 14:44:43;;;;;;;1.50;1.40;;;22.60;86.40;;;;;;6281057;27;89246;-64
2022/08/12 14:47:53;;;;;;;1.83;1.45;;;22.60;86.40;;;;;;6278758;27;89048;-64
2022/08/12 14:50:56;;;;;;;1.80;1.60;;;22.60;86.40;;;;;;6279483;27;89042;-64
2022/08/12 14:53:58;;;;;;;1.50;1.40;;;22.60;86.50;;;;;;6279504;27;89079;-63
2022/08/12 14:57:04;;;;;;;2.08;1.60;;;22.60;86.40;;;;;;6279495;27;89068;-64
2022/08/12 15:03:29;;;;;;;2.15;1.70;;;22.60;86.40;;;;;;6269079;27;88797;-63
2022/08/12 15:06:31;;;;;;;2.17;1.50;;;22.60;86.40;;;;;;6280869;27;89220;-64
2022/08/12 15:09:33;;;;;;;1.90;1.65;;;22.60;86.40;;;;;;6276350;27;88315;-64
2022/08/12 15:12:35;;;;;;;2.30;1.90;;;22.60;86.40;;;;;;6277014;27;89356;-64
2022/08/12 15:15:40;;;;;;;1.90;1.52;;;22.60;86.50;;;;;;6270955;27;89049;-63
2022/08/12 15:18:44;;;;;;;3.05;1.60;;;22.60;87.50;;;;;;6280856;27;89567;-64
2022/08/12 15:21:46;;;;;;;2.42;1.67;;;22.60;87.10;;;;;;6280416;27;89059;-64
2022/08/12 15:24:48;;;;;;;3.92;1.75;;;22.60;88.50;;;;;;6278435;27;89145;-63
2022/08/12 15:27:52;;;;;;;3.58;1.80;;;22.60;89.60;;;;;;6277700;27;89077;-63
2022/08/12 15:30:54;;;;;;;2.22;1.48;;;22.60;89.50;;;;;;6273522;27;87967;-64
2022/08/12 15:33:57;;;;;;;4.47;1.80;;;22.60;89.10;;;;;;6272216;27;88759;-64
2022/08/12 15:37:00;;;;;;;2.45;1.85;;;22.60;89.10;;;;;;6277264;27;89085;-63
2022/08/12 15:40:02;;;;;;;2.90;1.90;;;22.60;88.80;;;;;;6274642;27;88982;-62
2022/08/12 15:43:05;;;;;;;2.60;1.50;;;22.60;88.40;;;;;;6274965;27;90303;-61
2022/08/12 15:46:09;;;;;;;1.75;1.50;;;22.60;88.20;;;;;;6276089;27;89636;-63
2022/08/12 15:49:12;;;;;;;1.98;1.58;;;22.60;88.00;;;;;;6279561;27;88195;-63
2022/08/12 15:52:14;;;;;;;3.33;1.63;;;22.60;88.20;;;;;;6279130;27;88154;-63
2022/08/12 15:55:17;;;;;;;4.43;1.90;;;22.60;89.00;;;;;;6272921;27;89055;-63
2022/08/12 15:58:19;;;;;;;3.20;1.60;;;22.70;90.00;;;;;;6277892;27;89011;-68
2022/08/12 16:01:22;;;;;;;6.63;1.90;;;22.70;90.60;;;;;;6280240;27;89445;-68
2022/08/12 16:04:26;;;;;;;5.70;1.75;;;22.70;90.50;;;;;;6279645;27;88247;-67
2022/08/12 16:07:28;;;;;;;4.72;1.90;;;22.70;90.60;;;;;;6278425;27;89301;-67
2022/08/12 16:10:30;;;;;;;5.97;2.00;;;22.70;90.80;;;;;;6274949;27;89370;-64
2022/08/12 16:13:32;;;;;;;5.63;1.92;;;22.80;91.30;;;;;;6278436;27;89936;-63
2022/08/12 16:16:34;;;;;;;5.05;1.92;;;22.80;91.70;;;;;;6273126;27;89089;-66
2022/08/12 16:19:41;;;;;;;7.45;2.05;;;22.80;91.60;;;;;;6283043;27;87832;-65
2022/08/12 16:22:46;;;;;;;8.73;1.98;;;22.90;91.50;;;;;;6283167;27;88066;-64
2022/08/12 16:25:49;;;;;;;6.53;1.83;;;22.90;91.90;;;;;;6283295;27;89236;-65
2022/08/12 16:28:54;;;;;;;5.05;1.83;;;22.90;91.90;;;;;;6281598;27;88880;-63
2022/08/12 16:31:57;;;;;;;7.22;2.35;;;22.90;92.00;;;;;;6282407;27;88930;-65
2022/08/12 16:35:04;;;;;;;6.93;2.20;;;23.00;94.10;;;;;;6281337;27;88629;-64
2022/08/12 16:38:08;;;;;;;6.82;2.22;;;23.00;92.90;;;;;;6279237;27;89556;-63
2022/08/12 16:41:12;;;;;;;7.65;2.58;;;23.00;93.80;;;;;;6282951;27;89384;-67
2022/08/12 16:44:14;;;;;;;13.02;3.60;;;23.10;95.00;;;;;;6281788;27;90240;-67
2022/08/12 16:47:16;;;;;;;8.15;2.60;;;23.20;99.90;;;;;;6281188;27;89084;-67
2022/08/12 16:50:21;;;;;;;6.95;2.90;;;23.30;96.80;;;;;;6280874;27;89130;-67
2022/08/12 16:53:25;;;;;;;8.15;2.60;;;23.30;99.90;;;;;;6281876;27;89296;-67
2022/08/12 16:56:27;;;;;;;8.60;2.92;;;23.40;98.30;;;;;;6282742;27;89078;-66
2022/08/12 16:59:29;;;;;;;10.60;3.13;;;23.50;99.90;;;;;;6276098;27;88023;-67
2022/08/12 17:02:31;;;;;;;10.00;4.25;;;23.60;98.40;;;;;;6281305;27;89090;-64
2022/08/12 17:05:34;;;;;;;10.50;3.83;;;23.80;99.90;;;;;;6281168;27;88503;-66
2022/08/12 17:08:39;;;;;;;10.35;3.72;;;23.90;97.30;;;;;;6270654;27;87922;-66
2022/08/12 17:11:41;;;;;;;10.73;3.28;;;23.90;95.00;;;;;;6278006;27;89104;-66
2022/08/12 17:14:44;;;;;;;6.97;3.28;;;23.90;94.50;;;;;;6274285;27;89995;-66
2022/08/12 17:17:47;;;;;;;5.85;3.10;;;23.80;94.10;;;;;;6277395;27;89152;-66
2022/08/12 17:20:50;;;;;;;4.78;2.88;;;23.80;93.50;;;;;;6278807;27;89477;-66
2022/08/12 17:23:53;;;;;;;9.18;2.70;;;23.80;93.40;;;;;;6275357;27;89035;-66
2022/08/12 17:26:56;;;;;;;6.22;2.60;;;23.80;93.60;;;;;;6282256;27;89076;-66
2022/08/12 17:30:00;;;;;;;5.88;2.78;;;23.80;93.70;;;;;;6281100;27;89422;-65
2022/08/12 17:33:02;;;;;;;8.23;2.47;;;23.80;94.10;;;;;;6278693;27;89105;-64